sensor_id;sensor_type;location;lat;lon;timestamp;P1;durP1;ratioP1;P2;durP2;ratioP2
13483;SDS011;6814;57.786;12.080;2023-02-28T00:00:38;9.60;;;4.17;;
13483;SDS011;6814;57.786;12.080;2023-02-28T00:03:04;5.60;;;3.73;;
13483;SDS011;6814;57.786;12.080;2023-02-28T00:05:31;6.23;;;3.57;;
13483;SDS011;6814;57.786;12.080;2023-02-28T00:07:58;3.73;;;3.40;;
13483;SDS011;6814;57.786;12.080;2023-02-28T00:10:26;4.27;;;3.50;;
13483;SDS011;6814;57.786;12.080;2023-02-28T00:12:55;5.60;;;3.10;;
13483;SDS011;6814;57.786;12.080;2023-02-28T00:15:23;4.60;;;2.50;;
13483;SDS011;6814;57.786;12.080;2023-02-28T00:17:49;3.23;;;2.60;;
13483;SDS011;6814;57.786;12.080;2023-02-28T00:20:16;6.27;;;2.53;;
13483;SDS011;6814;57.786;12.080;2023-02-28T00:22:44;4.53;;;2.43;;
13483;SDS011;6814;57.786;12.080;2023-02-28T00:25:11;5.03;;;2.77;;
13483;SDS011;6814;57.786;12.080;2023-02-28T00:27:38;3.27;;;2.80;;
13483;SDS011;6814;57.786;12.080;2023-02-28T00:30:08;3.40;;;2.80;;
13483;SDS011;6814;57.786;12.080;2023-02-28T00:32:34;2.90;;;2.60;;
13483;SDS011;6814;57.786;12.080;2023-02-28T00:35:01;4.57;;;2.60;;
13483;SDS011;6814;57.786;12.080;2023-02-28T00:37:28;2.97;;;2.50;;
13483;SDS011;6814;57.786;12.080;2023-02-28T00:39:54;2.93;;;2.63;;
13483;SDS011;6814;57.786;12.080;2023-02-28T00:42:21;2.83;;;2.57;;
13483;SDS011;6814;57.786;12.080;2023-02-28T00:44:47;4.27;;;2.40;;
13483;SDS011;6814;57.786;12.080;2023-02-28T00:47:15;3.97;;;2.37;;
13483;SDS011;6814;57.786;12.080;2023-02-28T00:49:42;5.77;;;3.07;;
13483;SDS011;6814;57.786;12.080;2023-02-28T00:52:08;4.63;;;2.20;;
13483;SDS011;6814;57.786;12.080;2023-02-28T00:54:35;2.73;;;2.20;;
13483;SDS011;6814;57.786;12.080;2023-02-28T00:57:01;4.97;;;2.83;;
13483;SDS011;6814;57.786;12.080;2023-02-28T00:59:27;2.63;;;2.43;;
13483;SDS011;6814;57.786;12.080;2023-02-28T01:01:54;2.97;;;2.53;;
13483;SDS011;6814;57.786;12.080;2023-02-28T01:04:22;3.70;;;2.63;;
13483;SDS011;6814;57.786;12.080;2023-02-28T01:06:48;3.50;;;2.20;;
13483;SDS011;6814;57.786;12.080;2023-02-28T01:09:14;2.93;;;2.63;;
13483;SDS011;6814;57.786;12.080;2023-02-28T01:11:41;2.80;;;2.17;;
13483;SDS011;6814;57.786;12.080;2023-02-28T01:14:09;6.13;;;2.30;;
13483;SDS011;6814;57.786;12.080;2023-02-28T01:16:37;3.03;;;1.97;;
13483;SDS011;6814;57.786;12.080;2023-02-28T01:19:03;2.20;;;2.00;;
13483;SDS011;6814;57.786;12.080;2023-02-28T01:21:31;3.23;;;2.30;;
13483;SDS011;6814;57.786;12.080;2023-02-28T01:23:58;1.83;;;1.73;;
13483;SDS011;6814;57.786;12.080;2023-02-28T01:26:24;2.10;;;1.90;;
13483;SDS011;6814;57.786;12.080;2023-02-28T01:28:51;2.90;;;2.20;;
13483;SDS011;6814;57.786;12.080;2023-02-28T01:31:19;1.97;;;1.87;;
13483;SDS011;6814;57.786;12.080;2023-02-28T01:33:46;3.07;;;2.07;;
13483;SDS011;6814;57.786;12.080;2023-02-28T01:36:13;2.50;;;2.30;;
13483;SDS011;6814;57.786;12.080;2023-02-28T01:38:41;2.57;;;2.20;;
13483;SDS011;6814;57.786;12.080;2023-02-28T01:41:07;4.17;;;2.27;;
13483;SDS011;6814;57.786;12.080;2023-02-28T01:46:15;6.03;;;1.93;;
13483;SDS011;6814;57.786;12.080;2023-02-28T01:48:42;2.90;;;1.73;;
13483;SDS011;6814;57.786;12.080;2023-02-28T01:51:11;3.13;;;1.90;;
13483;SDS011;6814;57.786;12.080;2023-02-28T01:53:42;1.70;;;1.60;;
13483;SDS011;6814;57.786;12.080;2023-02-28T01:56:10;3.37;;;1.73;;
13483;SDS011;6814;57.786;12.080;2023-02-28T01:58:38;2.37;;;1.83;;
13483;SDS011;6814;57.786;12.080;2023-02-28T02:01:04;2.27;;;1.97;;
13483;SDS011;6814;57.786;12.080;2023-02-28T02:03:31;2.60;;;1.80;;
13483;SDS011;6814;57.786;12.080;2023-02-28T02:05:57;2.57;;;1.70;;
13483;SDS011;6814;57.786;12.080;2023-02-28T02:08:25;4.07;;;1.80;;
13483;SDS011;6814;57.786;12.080;2023-02-28T02:10:54;4.67;;;1.80;;
13483;SDS011;6814;57.786;12.080;2023-02-28T02:13:28;2.57;;;1.80;;
13483;SDS011;6814;57.786;12.080;2023-02-28T02:16:00;2.10;;;1.90;;
13483;SDS011;6814;57.786;12.080;2023-02-28T02:18:30;2.70;;;1.57;;
13483;SDS011;6814;57.786;12.080;2023-02-28T02:21:18;1.87;;;1.73;;
13483;SDS011;6814;57.786;12.080;2023-02-28T02:23:55;2.43;;;1.77;;
13483;SDS011;6814;57.786;12.080;2023-02-28T02:26:43;4.23;;;1.90;;
13483;SDS011;6814;57.786;12.080;2023-02-28T02:29:19;2.03;;;1.90;;
13483;SDS011;6814;57.786;12.080;2023-02-28T02:31:53;1.90;;;1.80;;
13483;SDS011;6814;57.786;12.080;2023-02-28T02:34:42;2.43;;;1.93;;
13483;SDS011;6814;57.786;12.080;2023-02-28T02:37:12;1.70;;;1.60;;
13483;SDS011;6814;57.786;12.080;2023-02-28T02:39:42;3.77;;;2.27;;
13483;SDS011;6814;57.786;12.080;2023-02-28T02:42:13;3.70;;;2.00;;
13483;SDS011;6814;57.786;12.080;2023-02-28T02:44:42;2.10;;;1.90;;
13483;SDS011;6814;57.786;12.080;2023-02-28T02:47:11;3.53;;;2.80;;
13483;SDS011;6814;57.786;12.080;2023-02-28T02:49:39;4.60;;;2.60;;
13483;SDS011;6814;57.786;12.080;2023-02-28T02:52:10;4.77;;;2.37;;
13483;SDS011;6814;57.786;12.080;2023-02-28T02:54:38;2.80;;;2.23;;
13483;SDS011;6814;57.786;12.080;2023-02-28T02:57:07;2.30;;;2.10;;
13483;SDS011;6814;57.786;12.080;2023-02-28T02:59:34;2.87;;;2.07;;
13483;SDS011;6814;57.786;12.080;2023-02-28T03:02:02;3.43;;;2.20;;
13483;SDS011;6814;57.786;12.080;2023-02-28T03:04:31;2.93;;;2.57;;
13483;SDS011;6814;57.786;12.080;2023-02-28T03:06:58;2.50;;;2.30;;
13483;SDS011;6814;57.786;12.080;2023-02-28T03:09:26;3.40;;;2.60;;
13483;SDS011;6814;57.786;12.080;2023-02-28T03:11:54;2.30;;;2.10;;
13483;SDS011;6814;57.786;12.080;2023-02-28T03:14:25;2.27;;;2.07;;
13483;SDS011;6814;57.786;12.080;2023-02-28T03:19:52;4.07;;;3.10;;
13483;SDS011;6814;57.786;12.080;2023-02-28T03:22:29;3.53;;;2.90;;
13483;SDS011;6814;57.786;12.080;2023-02-28T03:25:02;3.60;;;3.30;;
13483;SDS011;6814;57.786;12.080;2023-02-28T03:27:33;3.40;;;3.10;;
13483;SDS011;6814;57.786;12.080;2023-02-28T03:30:02;4.30;;;3.40;;
13483;SDS011;6814;57.786;12.080;2023-02-28T03:32:29;3.10;;;2.70;;
13483;SDS011;6814;57.786;12.080;2023-02-28T03:34:58;2.80;;;2.60;;
13483;SDS011;6814;57.786;12.080;2023-02-28T03:37:25;2.63;;;2.43;;
13483;SDS011;6814;57.786;12.080;2023-02-28T03:39:55;2.63;;;2.43;;
13483;SDS011;6814;57.786;12.080;2023-02-28T03:42:25;3.17;;;2.87;;
13483;SDS011;6814;57.786;12.080;2023-02-28T03:44:54;3.47;;;2.63;;
13483;SDS011;6814;57.786;12.080;2023-02-28T03:47:22;4.13;;;2.57;;
13483;SDS011;6814;57.786;12.080;2023-02-28T03:49:53;6.60;;;2.87;;
13483;SDS011;6814;57.786;12.080;2023-02-28T03:52:20;3.37;;;2.60;;
13483;SDS011;6814;57.786;12.080;2023-02-28T03:54:49;3.23;;;2.20;;
13483;SDS011;6814;57.786;12.080;2023-02-28T03:57:18;2.33;;;2.13;;
13483;SDS011;6814;57.786;12.080;2023-02-28T03:59:50;3.43;;;2.30;;
13483;SDS011;6814;57.786;12.080;2023-02-28T04:02:18;2.83;;;2.57;;
13483;SDS011;6814;57.786;12.080;2023-02-28T04:04:45;4.03;;;2.57;;
13483;SDS011;6814;57.786;12.080;2023-02-28T04:07:13;3.60;;;2.40;;
13483;SDS011;6814;57.786;12.080;2023-02-28T04:09:40;2.90;;;2.50;;
13483;SDS011;6814;57.786;12.080;2023-02-28T04:12:06;4.40;;;2.57;;
13483;SDS011;6814;57.786;12.080;2023-02-28T04:14:33;2.60;;;2.40;;
13483;SDS011;6814;57.786;12.080;2023-02-28T04:17:01;2.50;;;2.30;;
13483;SDS011;6814;57.786;12.080;2023-02-28T04:19:27;2.50;;;2.30;;
13483;SDS011;6814;57.786;12.080;2023-02-28T04:21:54;2.87;;;2.40;;
13483;SDS011;6814;57.786;12.080;2023-02-28T04:24:22;3.00;;;2.60;;
13483;SDS011;6814;57.786;12.080;2023-02-28T04:26:50;2.50;;;2.30;;
13483;SDS011;6814;57.786;12.080;2023-02-28T04:29:19;2.73;;;2.53;;
13483;SDS011;6814;57.786;12.080;2023-02-28T04:31:45;3.73;;;2.70;;
13483;SDS011;6814;57.786;12.080;2023-02-28T04:34:13;6.07;;;2.87;;
13483;SDS011;6814;57.786;12.080;2023-02-28T04:36:40;2.83;;;2.50;;
13483;SDS011;6814;57.786;12.080;2023-02-28T04:39:06;4.03;;;2.80;;
13483;SDS011;6814;57.786;12.080;2023-02-28T04:41:34;3.30;;;3.00;;
13483;SDS011;6814;57.786;12.080;2023-02-28T04:44:01;6.53;;;3.20;;
13483;SDS011;6814;57.786;12.080;2023-02-28T04:46:27;5.00;;;3.43;;
13483;SDS011;6814;57.786;12.080;2023-02-28T04:48:55;3.37;;;3.07;;
13483;SDS011;6814;57.786;12.080;2023-02-28T04:51:23;5.30;;;3.70;;
13483;SDS011;6814;57.786;12.080;2023-02-28T04:53:50;5.27;;;3.60;;
13483;SDS011;6814;57.786;12.080;2023-02-28T04:56:17;4.90;;;4.20;;
13483;SDS011;6814;57.786;12.080;2023-02-28T04:58:43;4.87;;;3.90;;
13483;SDS011;6814;57.786;12.080;2023-02-28T05:01:17;8.47;;;4.20;;
13483;SDS011;6814;57.786;12.080;2023-02-28T05:03:44;9.90;;;3.97;;
13483;SDS011;6814;57.786;12.080;2023-02-28T05:06:11;7.50;;;3.67;;
13483;SDS011;6814;57.786;12.080;2023-02-28T05:08:40;5.33;;;4.83;;
13483;SDS011;6814;57.786;12.080;2023-02-28T05:11:07;7.50;;;5.50;;
13483;SDS011;6814;57.786;12.080;2023-02-28T05:13:33;9.10;;;8.10;;
13483;SDS011;6814;57.786;12.080;2023-02-28T05:16:00;11.30;;;10.20;;
13483;SDS011;6814;57.786;12.080;2023-02-28T05:18:27;10.40;;;9.40;;
13483;SDS011;6814;57.786;12.080;2023-02-28T05:20:53;9.50;;;8.33;;
13483;SDS011;6814;57.786;12.080;2023-02-28T05:23:20;10.50;;;9.50;;
13483;SDS011;6814;57.786;12.080;2023-02-28T05:25:48;13.00;;;11.57;;
13483;SDS011;6814;57.786;12.080;2023-02-28T05:28:16;14.60;;;13.23;;
13483;SDS011;6814;57.786;12.080;2023-02-28T05:30:44;14.60;;;13.20;;
13483;SDS011;6814;57.786;12.080;2023-02-28T05:33:10;17.70;;;15.93;;
13483;SDS011;6814;57.786;12.080;2023-02-28T05:35:37;20.13;;;18.13;;
13483;SDS011;6814;57.786;12.080;2023-02-28T05:38:04;22.10;;;19.80;;
13483;SDS011;6814;57.786;12.080;2023-02-28T05:40:31;23.17;;;20.67;;
13483;SDS011;6814;57.786;12.080;2023-02-28T05:43:01;22.47;;;20.07;;
13483;SDS011;6814;57.786;12.080;2023-02-28T05:45:35;22.47;;;20.03;;
13483;SDS011;6814;57.786;12.080;2023-02-28T05:48:01;24.67;;;21.50;;
13483;SDS011;6814;57.786;12.080;2023-02-28T05:50:28;25.47;;;22.67;;
13483;SDS011;6814;57.786;12.080;2023-02-28T05:52:54;27.97;;;24.77;;
13483;SDS011;6814;57.786;12.080;2023-02-28T05:55:21;25.70;;;20.97;;
13483;SDS011;6814;57.786;12.080;2023-02-28T05:57:47;24.30;;;20.90;;
13483;SDS011;6814;57.786;12.080;2023-02-28T06:00:15;27.77;;;20.60;;
13483;SDS011;6814;57.786;12.080;2023-02-28T06:02:42;22.57;;;19.40;;
13483;SDS011;6814;57.786;12.080;2023-02-28T06:05:10;27.33;;;22.17;;
13483;SDS011;6814;57.786;12.080;2023-02-28T06:07:37;25.57;;;19.57;;
13483;SDS011;6814;57.786;12.080;2023-02-28T06:10:04;19.13;;;15.30;;
13483;SDS011;6814;57.786;12.080;2023-02-28T06:12:30;27.67;;;20.63;;
13483;SDS011;6814;57.786;12.080;2023-02-28T06:14:57;22.27;;;16.07;;
13483;SDS011;6814;57.786;12.080;2023-02-28T06:17:25;17.57;;;14.00;;
13483;SDS011;6814;57.786;12.080;2023-02-28T06:19:52;19.23;;;14.77;;
13483;SDS011;6814;57.786;12.080;2023-02-28T06:22:18;19.53;;;15.10;;
13483;SDS011;6814;57.786;12.080;2023-02-28T06:24:44;18.93;;;13.50;;
13483;SDS011;6814;57.786;12.080;2023-02-28T06:27:11;19.57;;;14.53;;
13483;SDS011;6814;57.786;12.080;2023-02-28T06:29:37;18.80;;;14.43;;
13483;SDS011;6814;57.786;12.080;2023-02-28T06:32:04;19.20;;;14.70;;
13483;SDS011;6814;57.786;12.080;2023-02-28T06:34:32;20.03;;;15.53;;
13483;SDS011;6814;57.786;12.080;2023-02-28T06:37:00;26.57;;;19.43;;
13483;SDS011;6814;57.786;12.080;2023-02-28T06:39:27;26.57;;;19.97;;
13483;SDS011;6814;57.786;12.080;2023-02-28T06:41:54;31.80;;;23.93;;
13483;SDS011;6814;57.786;12.080;2023-02-28T06:44:20;18.57;;;12.10;;
13483;SDS011;6814;57.786;12.080;2023-02-28T06:46:47;29.40;;;20.23;;
13483;SDS011;6814;57.786;12.080;2023-02-28T06:49:13;27.30;;;19.60;;
13483;SDS011;6814;57.786;12.080;2023-02-28T06:51:42;20.07;;;14.03;;
13483;SDS011;6814;57.786;12.080;2023-02-28T06:54:10;12.77;;;9.70;;
13483;SDS011;6814;57.786;12.080;2023-02-28T06:56:38;19.07;;;12.57;;
13483;SDS011;6814;57.786;12.080;2023-02-28T06:59:04;16.23;;;12.07;;
13483;SDS011;6814;57.786;12.080;2023-02-28T07:01:31;11.80;;;9.47;;
13483;SDS011;6814;57.786;12.080;2023-02-28T07:03:58;9.10;;;6.47;;
13483;SDS011;6814;57.786;12.080;2023-02-28T07:06:25;8.27;;;6.17;;
13483;SDS011;6814;57.786;12.080;2023-02-28T07:08:53;10.10;;;7.60;;
13483;SDS011;6814;57.786;12.080;2023-02-28T07:11:20;7.50;;;6.33;;
13483;SDS011;6814;57.786;12.080;2023-02-28T07:13:47;8.30;;;5.50;;
13483;SDS011;6814;57.786;12.080;2023-02-28T07:16:14;6.67;;;5.77;;
13483;SDS011;6814;57.786;12.080;2023-02-28T07:18:40;7.07;;;5.93;;
13483;SDS011;6814;57.786;12.080;2023-02-28T07:21:07;9.13;;;6.07;;
13483;SDS011;6814;57.786;12.080;2023-02-28T07:23:34;7.67;;;5.70;;
13483;SDS011;6814;57.786;12.080;2023-02-28T07:26:04;6.17;;;4.37;;
13483;SDS011;6814;57.786;12.080;2023-02-28T07:28:31;5.30;;;4.03;;
13483;SDS011;6814;57.786;12.080;2023-02-28T07:31:02;5.17;;;4.30;;
13483;SDS011;6814;57.786;12.080;2023-02-28T07:33:28;9.77;;;6.33;;
13483;SDS011;6814;57.786;12.080;2023-02-28T07:35:59;10.73;;;6.80;;
13483;SDS011;6814;57.786;12.080;2023-02-28T07:38:26;7.27;;;5.57;;
13483;SDS011;6814;57.786;12.080;2023-02-28T07:40:52;7.87;;;6.27;;
13483;SDS011;6814;57.786;12.080;2023-02-28T07:43:20;10.07;;;7.63;;
13483;SDS011;6814;57.786;12.080;2023-02-28T07:45:47;9.77;;;6.97;;
13483;SDS011;6814;57.786;12.080;2023-02-28T07:48:13;9.60;;;6.70;;
13483;SDS011;6814;57.786;12.080;2023-02-28T07:50:40;12.20;;;7.83;;
13483;SDS011;6814;57.786;12.080;2023-02-28T07:53:06;15.00;;;10.00;;
13483;SDS011;6814;57.786;12.080;2023-02-28T07:55:32;22.10;;;16.20;;
13483;SDS011;6814;57.786;12.080;2023-02-28T07:57:59;28.30;;;18.30;;
13483;SDS011;6814;57.786;12.080;2023-02-28T08:00:27;29.53;;;20.80;;
13483;SDS011;6814;57.786;12.080;2023-02-28T08:02:54;24.60;;;15.57;;
13483;SDS011;6814;57.786;12.080;2023-02-28T08:05:20;22.27;;;14.83;;
13483;SDS011;6814;57.786;12.080;2023-02-28T08:07:48;18.17;;;11.83;;
13483;SDS011;6814;57.786;12.080;2023-02-28T08:10:15;19.80;;;12.30;;
13483;SDS011;6814;57.786;12.080;2023-02-28T08:12:41;20.40;;;13.77;;
13483;SDS011;6814;57.786;12.080;2023-02-28T08:15:08;15.50;;;11.67;;
13483;SDS011;6814;57.786;12.080;2023-02-28T08:17:36;14.50;;;10.83;;
13483;SDS011;6814;57.786;12.080;2023-02-28T08:20:03;12.17;;;9.37;;
13483;SDS011;6814;57.786;12.080;2023-02-28T08:22:30;7.90;;;6.50;;
13483;SDS011;6814;57.786;12.080;2023-02-28T08:24:56;8.73;;;6.70;;
13483;SDS011;6814;57.786;12.080;2023-02-28T08:27:23;9.30;;;6.90;;
13483;SDS011;6814;57.786;12.080;2023-02-28T08:29:49;13.10;;;8.40;;
13483;SDS011;6814;57.786;12.080;2023-02-28T08:32:16;15.27;;;9.53;;
13483;SDS011;6814;57.786;12.080;2023-02-28T08:34:43;14.93;;;9.93;;
13483;SDS011;6814;57.786;12.080;2023-02-28T08:37:10;14.80;;;9.17;;
13483;SDS011;6814;57.786;12.080;2023-02-28T08:39:37;12.30;;;8.63;;
13483;SDS011;6814;57.786;12.080;2023-02-28T08:42:03;11.37;;;8.70;;
13483;SDS011;6814;57.786;12.080;2023-02-28T08:44:30;12.70;;;9.47;;
13483;SDS011;6814;57.786;12.080;2023-02-28T08:46:57;10.47;;;8.50;;
13483;SDS011;6814;57.786;12.080;2023-02-28T08:49:23;12.40;;;7.67;;
13483;SDS011;6814;57.786;12.080;2023-02-28T08:51:51;12.73;;;8.20;;
13483;SDS011;6814;57.786;12.080;2023-02-28T08:54:19;12.53;;;7.50;;
13483;SDS011;6814;57.786;12.080;2023-02-28T08:56:45;11.57;;;8.33;;
13483;SDS011;6814;57.786;12.080;2023-02-28T08:59:12;14.20;;;9.07;;
13483;SDS011;6814;57.786;12.080;2023-02-28T09:01:38;9.83;;;7.37;;
13483;SDS011;6814;57.786;12.080;2023-02-28T09:04:06;9.33;;;7.60;;
13483;SDS011;6814;57.786;12.080;2023-02-28T09:06:33;10.77;;;7.73;;
13483;SDS011;6814;57.786;12.080;2023-02-28T09:09:01;11.97;;;8.40;;
13483;SDS011;6814;57.786;12.080;2023-02-28T09:11:29;8.60;;;7.70;;
13483;SDS011;6814;57.786;12.080;2023-02-28T09:13:55;11.60;;;7.93;;
13483;SDS011;6814;57.786;12.080;2023-02-28T09:16:22;9.57;;;6.87;;
13483;SDS011;6814;57.786;12.080;2023-02-28T09:18:48;12.20;;;8.50;;
13483;SDS011;6814;57.786;12.080;2023-02-28T09:21:16;12.90;;;7.67;;
13483;SDS011;6814;57.786;12.080;2023-02-28T09:23:44;8.83;;;7.27;;
13483;SDS011;6814;57.786;12.080;2023-02-28T09:26:14;9.70;;;7.43;;
13483;SDS011;6814;57.786;12.080;2023-02-28T09:28:41;11.90;;;6.73;;
13483;SDS011;6814;57.786;12.080;2023-02-28T09:31:10;10.27;;;5.80;;
13483;SDS011;6814;57.786;12.080;2023-02-28T09:33:37;6.10;;;5.50;;
13483;SDS011;6814;57.786;12.080;2023-02-28T09:36:04;7.97;;;5.70;;
13483;SDS011;6814;57.786;12.080;2023-02-28T09:38:31;6.50;;;5.03;;
13483;SDS011;6814;57.786;12.080;2023-02-28T09:40:58;9.43;;;5.60;;
13483;SDS011;6814;57.786;12.080;2023-02-28T09:43:27;6.17;;;5.27;;
13483;SDS011;6814;57.786;12.080;2023-02-28T09:45:55;9.33;;;5.93;;
13483;SDS011;6814;57.786;12.080;2023-02-28T09:48:27;6.83;;;5.40;;
13483;SDS011;6814;57.786;12.080;2023-02-28T09:50:58;6.43;;;5.20;;
13483;SDS011;6814;57.786;12.080;2023-02-28T09:53:27;6.20;;;4.70;;
13483;SDS011;6814;57.786;12.080;2023-02-28T09:55:58;4.77;;;4.37;;
13483;SDS011;6814;57.786;12.080;2023-02-28T09:58:28;5.17;;;4.50;;
13483;SDS011;6814;57.786;12.080;2023-02-28T10:00:58;5.63;;;4.53;;
13483;SDS011;6814;57.786;12.080;2023-02-28T10:03:28;6.17;;;4.63;;
13483;SDS011;6814;57.786;12.080;2023-02-28T10:05:56;8.03;;;4.77;;
13483;SDS011;6814;57.786;12.080;2023-02-28T10:08:25;7.63;;;4.27;;
13483;SDS011;6814;57.786;12.080;2023-02-28T10:10:53;5.27;;;3.80;;
13483;SDS011;6814;57.786;12.080;2023-02-28T10:13:23;7.80;;;4.70;;
13483;SDS011;6814;57.786;12.080;2023-02-28T10:15:52;5.37;;;4.17;;
13483;SDS011;6814;57.786;12.080;2023-02-28T10:18:21;5.87;;;4.40;;
13483;SDS011;6814;57.786;12.080;2023-02-28T10:20:49;4.97;;;3.87;;
13483;SDS011;6814;57.786;12.080;2023-02-28T10:23:19;4.20;;;3.80;;
13483;SDS011;6814;57.786;12.080;2023-02-28T10:25:47;6.07;;;4.33;;
13483;SDS011;6814;57.786;12.080;2023-02-28T10:28:16;8.03;;;3.90;;
13483;SDS011;6814;57.786;12.080;2023-02-28T10:30:44;4.30;;;3.63;;
13483;SDS011;6814;57.786;12.080;2023-02-28T10:33:17;6.30;;;3.63;;
13483;SDS011;6814;57.786;12.080;2023-02-28T10:35:44;5.90;;;3.57;;
13483;SDS011;6814;57.786;12.080;2023-02-28T10:38:13;3.73;;;2.50;;
13483;SDS011;6814;57.786;12.080;2023-02-28T10:40:41;2.30;;;2.10;;
13483;SDS011;6814;57.786;12.080;2023-02-28T10:43:16;4.03;;;2.27;;
13483;SDS011;6814;57.786;12.080;2023-02-28T10:45:52;2.30;;;1.80;;
13483;SDS011;6814;57.786;12.080;2023-02-28T10:48:29;2.10;;;1.90;;
13483;SDS011;6814;57.786;12.080;2023-02-28T10:50:56;1.73;;;1.30;;
13483;SDS011;6814;57.786;12.080;2023-02-28T10:53:25;1.33;;;1.23;;
13483;SDS011;6814;57.786;12.080;2023-02-28T10:55:57;3.33;;;1.40;;
13483;SDS011;6814;57.786;12.080;2023-02-28T10:58:24;3.37;;;0.93;;
13483;SDS011;6814;57.786;12.080;2023-02-28T11:00:51;2.87;;;1.17;;
13483;SDS011;6814;57.786;12.080;2023-02-28T11:03:28;1.60;;;0.83;;
13483;SDS011;6814;57.786;12.080;2023-02-28T11:05:56;1.60;;;0.53;;
13483;SDS011;6814;57.786;12.080;2023-02-28T11:08:23;0.47;;;0.47;;
13483;SDS011;6814;57.786;12.080;2023-02-28T11:10:53;1.50;;;0.50;;
13483;SDS011;6814;57.786;12.080;2023-02-28T11:13:20;2.80;;;0.80;;
13483;SDS011;6814;57.786;12.080;2023-02-28T11:15:50;0.77;;;0.70;;
13483;SDS011;6814;57.786;12.080;2023-02-28T11:18:21;1.07;;;0.70;;
13483;SDS011;6814;57.786;12.080;2023-02-28T11:20:49;3.63;;;0.77;;
13483;SDS011;6814;57.786;12.080;2023-02-28T11:23:17;1.43;;;0.97;;
13483;SDS011;6814;57.786;12.080;2023-02-28T11:25:46;1.37;;;0.90;;
13483;SDS011;6814;57.786;12.080;2023-02-28T11:28:23;1.23;;;0.50;;
13483;SDS011;6814;57.786;12.080;2023-02-28T11:30:59;0.67;;;0.63;;
13483;SDS011;6814;57.786;12.080;2023-02-28T11:33:27;1.43;;;0.60;;
13483;SDS011;6814;57.786;12.080;2023-02-28T11:35:55;0.73;;;0.47;;
13483;SDS011;6814;57.786;12.080;2023-02-28T11:38:28;2.80;;;0.57;;
13483;SDS011;6814;57.786;12.080;2023-02-28T11:40:59;2.47;;;0.70;;
13483;SDS011;6814;57.786;12.080;2023-02-28T11:43:30;0.30;;;0.30;;
13483;SDS011;6814;57.786;12.080;2023-02-28T11:46:13;0.70;;;0.43;;
13483;SDS011;6814;57.786;12.080;2023-02-28T11:48:43;1.20;;;0.50;;
13483;SDS011;6814;57.786;12.080;2023-02-28T11:51:14;1.77;;;0.40;;
13483;SDS011;6814;57.786;12.080;2023-02-28T11:53:55;0.40;;;0.40;;
13483;SDS011;6814;57.786;12.080;2023-02-28T11:56:26;3.77;;;0.90;;
13483;SDS011;6814;57.786;12.080;2023-02-28T11:58:59;2.43;;;0.50;;
13483;SDS011;6814;57.786;12.080;2023-02-28T12:01:34;0.30;;;0.30;;
13483;SDS011;6814;57.786;12.080;2023-02-28T12:04:04;1.03;;;0.40;;
13483;SDS011;6814;57.786;12.080;2023-02-28T12:06:36;3.00;;;0.30;;
13483;SDS011;6814;57.786;12.080;2023-02-28T12:09:11;0.90;;;0.30;;
13483;SDS011;6814;57.786;12.080;2023-02-28T12:11:45;3.00;;;0.27;;
13483;SDS011;6814;57.786;12.080;2023-02-28T12:14:18;0.40;;;0.20;;
13483;SDS011;6814;57.786;12.080;2023-02-28T12:16:50;0.27;;;0.27;;
13483;SDS011;6814;57.786;12.080;2023-02-28T12:19:20;0.13;;;0.10;;
13483;SDS011;6814;57.786;12.080;2023-02-28T12:22:06;0.83;;;0.10;;
13483;SDS011;6814;57.786;12.080;2023-02-28T12:24:51;0.40;;;0.20;;
13483;SDS011;6814;57.786;12.080;2023-02-28T12:27:21;0.33;;;0.20;;
13483;SDS011;6814;57.786;12.080;2023-02-28T12:29:49;0.20;;;0.20;;
13483;SDS011;6814;57.786;12.080;2023-02-28T12:32:18;0.33;;;0.30;;
13483;SDS011;6814;57.786;12.080;2023-02-28T12:34:47;0.20;;;0.20;;
13483;SDS011;6814;57.786;12.080;2023-02-28T12:37:17;0.20;;;0.20;;
13483;SDS011;6814;57.786;12.080;2023-02-28T12:39:48;7.97;;;3.90;;
13483;SDS011;6814;57.786;12.080;2023-02-28T12:42:22;12.80;;;6.57;;
13483;SDS011;6814;57.786;12.080;2023-02-28T12:44:51;14.60;;;6.50;;
13483;SDS011;6814;57.786;12.080;2023-02-28T12:47:18;14.83;;;5.23;;
13483;SDS011;6814;57.786;12.080;2023-02-28T12:49:45;13.63;;;5.27;;
13483;SDS011;6814;57.786;12.080;2023-02-28T12:52:16;11.33;;;5.87;;
13483;SDS011;6814;57.786;12.080;2023-02-28T12:54:46;7.77;;;4.97;;
13483;SDS011;6814;57.786;12.080;2023-02-28T12:57:15;6.70;;;4.83;;
13483;SDS011;6814;57.786;12.080;2023-02-28T12:59:45;9.00;;;4.50;;
13483;SDS011;6814;57.786;12.080;2023-02-28T13:02:26;9.93;;;5.10;;
13483;SDS011;6814;57.786;12.080;2023-02-28T13:05:07;6.20;;;4.00;;
13483;SDS011;6814;57.786;12.080;2023-02-28T13:07:41;5.93;;;4.37;;
13483;SDS011;6814;57.786;12.080;2023-02-28T13:10:13;8.87;;;5.17;;
13483;SDS011;6814;57.786;12.080;2023-02-28T13:12:46;6.67;;;4.07;;
13483;SDS011;6814;57.786;12.080;2023-02-28T13:15:18;8.10;;;4.00;;
13483;SDS011;6814;57.786;12.080;2023-02-28T13:17:47;8.43;;;3.90;;
13483;SDS011;6814;57.786;12.080;2023-02-28T13:20:15;9.30;;;3.87;;
13483;SDS011;6814;57.786;12.080;2023-02-28T13:22:44;9.47;;;4.00;;
13483;SDS011;6814;57.786;12.080;2023-02-28T13:28:01;7.50;;;4.60;;
13483;SDS011;6814;57.786;12.080;2023-02-28T13:33:28;7.33;;;3.87;;
13483;SDS011;6814;57.786;12.080;2023-02-28T13:36:22;6.73;;;3.90;;
13483;SDS011;6814;57.786;12.080;2023-02-28T13:38:49;5.57;;;3.50;;
13483;SDS011;6814;57.786;12.080;2023-02-28T13:44:03;4.37;;;3.37;;
13483;SDS011;6814;57.786;12.080;2023-02-28T13:46:30;4.90;;;3.50;;
13483;SDS011;6814;57.786;12.080;2023-02-28T13:48:59;6.50;;;3.23;;
13483;SDS011;6814;57.786;12.080;2023-02-28T13:51:44;7.30;;;2.70;;
13483;SDS011;6814;57.786;12.080;2023-02-28T13:54:20;5.17;;;2.40;;
13483;SDS011;6814;57.786;12.080;2023-02-28T13:56:52;4.93;;;2.20;;
13483;SDS011;6814;57.786;12.080;2023-02-28T13:59:25;5.17;;;2.07;;
13483;SDS011;6814;57.786;12.080;2023-02-28T14:01:59;2.10;;;1.90;;
13483;SDS011;6814;57.786;12.080;2023-02-28T14:04:46;2.97;;;1.90;;
13483;SDS011;6814;57.786;12.080;2023-02-28T14:07:19;3.33;;;1.80;;
13483;SDS011;6814;57.786;12.080;2023-02-28T14:09:46;1.80;;;1.70;;
13483;SDS011;6814;57.786;12.080;2023-02-28T14:15:00;4.20;;;2.00;;
13483;SDS011;6814;57.786;12.080;2023-02-28T14:17:27;3.10;;;1.63;;
13483;SDS011;6814;57.786;12.080;2023-02-28T14:19:55;4.70;;;1.80;;
13483;SDS011;6814;57.786;12.080;2023-02-28T14:22:37;3.30;;;1.80;;
13483;SDS011;6814;57.786;12.080;2023-02-28T14:25:08;4.93;;;1.70;;
13483;SDS011;6814;57.786;12.080;2023-02-28T14:27:37;2.83;;;1.60;;
13483;SDS011;6814;57.786;12.080;2023-02-28T14:30:17;2.00;;;1.60;;
13483;SDS011;6814;57.786;12.080;2023-02-28T14:32:51;4.57;;;1.63;;
13483;SDS011;6814;57.786;12.080;2023-02-28T14:35:27;1.60;;;1.50;;
13483;SDS011;6814;57.786;12.080;2023-02-28T14:37:55;1.67;;;1.27;;
13483;SDS011;6814;57.786;12.080;2023-02-28T14:40:27;4.40;;;1.70;;
13483;SDS011;6814;57.786;12.080;2023-02-28T14:42:55;1.20;;;1.10;;
13483;SDS011;6814;57.786;12.080;2023-02-28T14:45:22;1.70;;;1.23;;
13483;SDS011;6814;57.786;12.080;2023-02-28T14:47:48;2.30;;;1.40;;
13483;SDS011;6814;57.786;12.080;2023-02-28T14:50:19;3.27;;;1.80;;
13483;SDS011;6814;57.786;12.080;2023-02-28T14:52:47;2.13;;;1.60;;
13483;SDS011;6814;57.786;12.080;2023-02-28T14:55:16;5.07;;;1.87;;
13483;SDS011;6814;57.786;12.080;2023-02-28T14:57:50;3.87;;;1.53;;
13483;SDS011;6814;57.786;12.080;2023-02-28T15:00:20;1.73;;;1.63;;
13483;SDS011;6814;57.786;12.080;2023-02-28T15:02:47;1.70;;;1.60;;
13483;SDS011;6814;57.786;12.080;2023-02-28T15:05:19;4.20;;;1.80;;
13483;SDS011;6814;57.786;12.080;2023-02-28T15:07:49;2.90;;;1.63;;
13483;SDS011;6814;57.786;12.080;2023-02-28T15:10:26;2.63;;;1.90;;